createdAt,value
2023-02-19T00:01:45.694Z,20.27
2023-02-19T00:04:15.043Z,19.10
2023-02-19T00:06:43.190Z,19.73
2023-02-19T00:09:12.390Z,26.58
2023-02-19T00:11:40.060Z,14.30
2023-02-19T00:14:07.183Z,14.40
2023-02-19T00:16:36.374Z,15.90
2023-02-19T00:19:05.237Z,13.77
2023-02-19T00:21:32.075Z,19.33
2023-02-19T00:24:01.471Z,18.77
2023-02-19T00:26:28.903Z,13.05
2023-02-19T00:28:57.150Z,14.82
2023-02-19T00:31:31.477Z,13.23
2023-02-19T00:34:01.312Z,13.68
2023-02-19T00:36:28.887Z,10.93
2023-02-19T00:38:55.370Z,11.20
2023-02-19T00:41:24.181Z,10.88
2023-02-19T00:43:57.885Z,12.63
2023-02-19T00:46:29.980Z,13.85
2023-02-19T00:48:57.620Z,8.47
2023-02-19T00:51:28.524Z,10.75
2023-02-19T00:53:55.065Z,10.93
2023-02-19T00:56:21.712Z,15.80
2023-02-19T00:58:48.922Z,10.85
2023-02-19T01:01:15.916Z,18.50
2023-02-19T01:03:42.832Z,18.80
2023-02-19T01:06:10.930Z,15.55
2023-02-19T01:08:38.013Z,15.70
2023-02-19T01:11:05.745Z,15.38
2023-02-19T01:13:32.517Z,16.17
2023-02-19T01:16:08.417Z,22.65
2023-02-19T01:18:35.383Z,20.65
2023-02-19T01:21:07.278Z,18.10
2023-02-19T01:23:34.159Z,16.02
2023-02-19T01:26:00.624Z,17.07
2023-02-19T01:28:27.084Z,17.08
2023-02-19T01:30:53.575Z,17.20
2023-02-19T01:33:20.062Z,16.20
2023-02-19T01:35:46.506Z,25.58
2023-02-19T01:38:12.932Z,15.30
2023-02-19T01:40:39.379Z,20.60
2023-02-19T01:43:15.079Z,12.55
2023-02-19T01:45:44.237Z,13.45
2023-02-19T01:48:22.860Z,16.60
2023-02-19T01:51:11.427Z,15.20
2023-02-19T01:53:41.857Z,12.95
2023-02-19T01:56:09.478Z,13.43
2023-02-19T01:58:37.239Z,20.40
2023-02-19T02:01:07.259Z,18.80
2023-02-19T02:03:35.451Z,14.43
2023-02-19T02:06:08.024Z,18.23
2023-02-19T02:08:53.428Z,14.18
2023-02-19T02:11:20.598Z,15.95
2023-02-19T02:13:48.111Z,15.27
2023-02-19T02:16:19.153Z,14.33
2023-02-19T02:18:48.646Z,16.60
2023-02-19T02:24:24.320Z,18.63
2023-02-19T02:27:08.727Z,14.00
2023-02-19T02:29:47.331Z,8.60
2023-02-19T02:32:20.620Z,11.70
2023-02-19T02:34:59.539Z,12.38
2023-02-19T02:37:30.323Z,11.52
2023-02-19T02:39:58.435Z,13.63
2023-02-19T02:42:27.863Z,9.23
2023-02-19T02:45:14.397Z,13.23
2023-02-19T02:47:50.664Z,10.32
2023-02-19T02:50:25.297Z,13.90
2023-02-19T02:53:18.404Z,16.33
2023-02-19T02:55:49.081Z,13.53
2023-02-19T02:58:16.896Z,12.55
2023-02-19T03:01:05.678Z,12.65
2023-02-19T03:03:32.621Z,17.02
2023-02-19T03:06:04.665Z,13.88
2023-02-19T03:08:49.364Z,9.13
2023-02-19T03:11:34.343Z,8.50
2023-02-19T03:14:32.038Z,8.52
2023-02-19T03:17:37.090Z,9.80
2023-02-19T03:20:07.810Z,10.30
2023-02-19T03:22:37.867Z,12.57
2023-02-19T03:25:28.574Z,16.50
2023-02-19T03:27:58.597Z,12.40
2023-02-19T03:30:31.187Z,12.43
2023-02-19T03:33:03.326Z,15.27
2023-02-19T03:35:33.301Z,11.73
2023-02-19T03:38:03.380Z,11.98
2023-02-19T03:40:34.488Z,11.80
2023-02-19T03:43:24.074Z,8.38
2023-02-19T03:45:56.987Z,15.35
2023-02-19T03:48:31.220Z,16.20
2023-02-19T03:51:20.499Z,14.98
2023-02-19T03:53:53.618Z,12.75
2023-02-19T03:56:32.106Z,13.27
2023-02-19T03:59:08.956Z,9.80
2023-02-19T04:01:44.380Z,9.63
2023-02-19T04:04:13.518Z,11.75
2023-02-19T04:06:42.699Z,12.93
2023-02-19T04:09:14.502Z,13.38
2023-02-19T04:11:41.707Z,10.07
2023-02-19T04:14:08.095Z,11.87
2023-02-19T04:16:39.218Z,12.27
2023-02-19T04:19:11.496Z,10.82
2023-02-19T04:21:40.797Z,8.63
2023-02-19T04:24:13.248Z,7.57
2023-02-19T04:26:40.419Z,13.97
2023-02-19T04:29:07.020Z,20.88
2023-02-19T04:31:35.788Z,16.40
2023-02-19T04:34:03.844Z,11.55
2023-02-19T04:36:32.095Z,12.95
2023-02-19T04:38:58.932Z,11.20
2023-02-19T04:41:25.459Z,12.32
2023-02-19T04:43:51.908Z,8.00
2023-02-19T04:46:18.416Z,10.05
2023-02-19T04:48:44.870Z,10.75
2023-02-19T04:51:11.794Z,9.37
2023-02-19T04:53:38.512Z,14.70
2023-02-19T04:56:12.988Z,6.53
2023-02-19T04:58:40.611Z,10.13
2023-02-19T05:01:07.871Z,11.73
2023-02-19T05:03:37.307Z,10.70
2023-02-19T05:06:06.138Z,11.45
2023-02-19T05:08:32.779Z,8.02
2023-02-19T05:11:00.669Z,14.25
2023-02-19T05:13:27.428Z,13.40
2023-02-19T05:15:55.766Z,9.67
2023-02-19T05:18:22.277Z,13.95
2023-02-19T05:20:49.635Z,11.00
2023-02-19T05:23:16.069Z,8.93
2023-02-19T05:25:42.515Z,13.20
2023-02-19T05:28:17.873Z,9.57
2023-02-19T05:30:52.158Z,11.85
2023-02-19T05:33:20.838Z,17.35
2023-02-19T05:35:49.861Z,9.75
2023-02-19T05:38:17.583Z,12.85
2023-02-19T05:40:45.518Z,9.07
2023-02-19T05:43:13.483Z,7.97
2023-02-19T05:45:40.503Z,13.02
2023-02-19T05:48:07.885Z,11.45
2023-02-19T05:50:37.286Z,11.40
2023-02-19T05:53:05.729Z,15.23
2023-02-19T05:55:36.415Z,9.98
2023-02-19T05:58:03.415Z,12.30
2023-02-19T06:00:30.529Z,13.88
2023-02-19T06:02:56.991Z,12.40
2023-02-19T06:05:23.668Z,12.10
2023-02-19T06:07:50.567Z,13.52
2023-02-19T06:10:18.061Z,10.38
2023-02-19T06:12:44.805Z,11.50
2023-02-19T06:15:11.325Z,12.52
2023-02-19T06:17:37.785Z,13.07
2023-02-19T06:20:04.472Z,15.95
2023-02-19T06:22:30.919Z,11.00
2023-02-19T06:24:57.392Z,12.95
2023-02-19T06:27:23.859Z,16.45
2023-02-19T06:29:50.432Z,13.47
2023-02-19T06:32:17.083Z,13.93
2023-02-19T06:34:43.612Z,12.63
2023-02-19T06:37:10.130Z,13.80
2023-02-19T06:39:36.714Z,14.75
2023-02-19T06:42:03.249Z,12.37
2023-02-19T06:44:30.177Z,14.45
2023-02-19T06:46:56.869Z,10.77
2023-02-19T06:49:23.613Z,9.20
2023-02-19T06:51:50.062Z,7.80
2023-02-19T06:54:16.496Z,13.83
2023-02-19T06:56:46.074Z,16.55
2023-02-19T06:59:16.951Z,11.23
2023-02-19T07:01:44.708Z,14.20
2023-02-19T07:04:11.619Z,11.23
2023-02-19T07:06:38.531Z,12.90
2023-02-19T07:09:06.400Z,13.77
2023-02-19T07:11:34.385Z,12.38
2023-02-19T07:14:04.691Z,14.55
2023-02-19T07:16:31.454Z,12.75
2023-02-19T07:18:59.280Z,12.47
2023-02-19T07:21:26.405Z,18.35
2023-02-19T07:23:52.950Z,12.82
2023-02-19T07:26:20.313Z,14.20
2023-02-19T07:28:48.623Z,20.23
2023-02-19T07:31:16.551Z,15.77
2023-02-19T07:33:46.846Z,12.02
2023-02-19T07:36:15.250Z,15.25
2023-02-19T07:38:41.697Z,14.25
2023-02-19T07:41:08.148Z,13.88
2023-02-19T07:43:37.061Z,23.60
2023-02-19T07:46:14.085Z,17.60
2023-02-19T07:48:42.675Z,16.85
2023-02-19T07:51:14.010Z,15.57
2023-02-19T07:53:40.549Z,12.82
2023-02-19T07:56:08.630Z,27.67
2023-02-19T07:58:35.193Z,16.23
2023-02-19T08:01:14.795Z,15.32
2023-02-19T08:03:41.913Z,24.10
2023-02-19T08:06:09.080Z,15.32
2023-02-19T08:08:35.583Z,15.63
2023-02-19T08:11:23.004Z,19.27
2023-02-19T08:13:51.042Z,19.70
2023-02-19T08:16:29.597Z,21.40
2023-02-19T08:18:56.441Z,23.50
2023-02-19T08:21:22.962Z,15.83
2023-02-19T08:23:51.201Z,25.40
2023-02-19T08:26:18.417Z,18.25
2023-02-19T08:28:44.946Z,25.60
2023-02-19T08:31:12.509Z,14.48
2023-02-19T08:33:39.112Z,18.47
2023-02-19T08:36:07.677Z,16.60
2023-02-19T08:38:35.902Z,13.38
2023-02-19T08:41:11.796Z,16.52
2023-02-19T08:43:39.293Z,13.73
2023-02-19T08:46:07.186Z,19.23
2023-02-19T08:48:33.861Z,19.00
2023-02-19T08:51:07.075Z,20.58
2023-02-19T08:53:35.461Z,19.35
2023-02-19T08:56:13.668Z,16.63
2023-02-19T08:58:40.496Z,24.93
2023-02-19T09:01:12.586Z,19.08
2023-02-19T09:03:39.478Z,20.08
2023-02-19T09:06:06.228Z,23.15
2023-02-19T09:08:32.857Z,20.17
2023-02-19T09:11:04.590Z,19.37
2023-02-19T09:13:31.129Z,20.95
2023-02-19T09:15:57.725Z,18.00
2023-02-19T09:18:25.657Z,19.60
2023-02-19T09:20:52.136Z,17.27
2023-02-19T09:23:18.617Z,21.17
2023-02-19T09:25:45.085Z,21.63
2023-02-19T09:28:11.809Z,18.75
2023-02-19T09:30:38.310Z,17.63
2023-02-19T09:33:05.977Z,20.02
2023-02-19T09:35:32.500Z,18.60
2023-02-19T09:38:03.102Z,17.55
2023-02-19T09:40:30.323Z,20.38
2023-02-19T09:42:58.447Z,15.52
2023-02-19T09:45:26.885Z,15.23
2023-02-19T09:47:57.129Z,11.97
2023-02-19T09:50:31.886Z,17.58
2023-02-19T09:53:03.229Z,24.33
2023-02-19T09:55:37.957Z,12.40
2023-02-19T09:58:35.610Z,17.48
2023-02-19T10:01:05.125Z,9.17
2023-02-19T10:03:35.417Z,9.13
2023-02-19T10:06:24.602Z,8.55
2023-02-19T10:09:18.652Z,6.90
2023-02-19T10:11:45.181Z,7.28
2023-02-19T10:14:19.553Z,3.00
2023-02-19T10:16:50.066Z,2.47
2023-02-19T10:19:16.629Z,2.20
2023-02-19T10:21:44.356Z,3.08
2023-02-19T10:24:20.883Z,4.57
2023-02-19T10:26:47.902Z,3.43
2023-02-19T10:29:14.288Z,1.92
2023-02-19T10:31:40.850Z,2.78
2023-02-19T10:34:18.215Z,2.58
2023-02-19T10:36:48.551Z,2.95
2023-02-19T10:39:50.516Z,2.20
2023-02-19T10:42:22.295Z,2.17
2023-02-19T10:44:58.528Z,3.08
2023-02-19T10:47:27.102Z,2.47
2023-02-19T10:49:59.865Z,3.45
2023-02-19T10:52:34.382Z,2.37
2023-02-19T10:55:26.734Z,3.03
2023-02-19T10:57:53.127Z,2.65
2023-02-19T11:00:31.060Z,4.32
2023-02-19T11:03:23.837Z,5.80
2023-02-19T11:06:04.314Z,2.43
2023-02-19T11:08:38.234Z,3.42
2023-02-19T11:11:04.962Z,3.45
2023-02-19T11:13:37.921Z,3.50
2023-02-19T11:16:05.373Z,3.08
2023-02-19T11:18:32.970Z,4.00
2023-02-19T11:21:01.873Z,3.25
2023-02-19T11:23:44.841Z,3.92
2023-02-19T11:26:35.274Z,2.80
2023-02-19T11:29:16.530Z,3.00
2023-02-19T11:31:43.043Z,3.23
2023-02-19T11:34:17.371Z,3.17
2023-02-19T11:36:43.795Z,2.25
2023-02-19T11:39:10.151Z,2.25
2023-02-19T11:41:54.760Z,2.53
2023-02-19T11:44:51.034Z,2.30
2023-02-19T11:47:29.569Z,3.13
2023-02-19T11:50:19.234Z,3.10
2023-02-19T11:53:27.843Z,2.22
2023-02-19T11:56:15.751Z,4.65
2023-02-19T11:59:02.105Z,2.77
2023-02-19T12:01:43.682Z,2.33
2023-02-19T12:04:41.883Z,2.70
2023-02-19T12:07:11.320Z,1.50
2023-02-19T12:09:49.892Z,2.58
2023-02-19T12:12:25.491Z,1.60
2023-02-19T12:15:05.787Z,2.83
2023-02-19T12:18:04.425Z,1.85
2023-02-19T12:20:43.760Z,2.72
2023-02-19T12:23:46.192Z,1.90
2023-02-19T12:26:33.005Z,2.23
2023-02-19T12:29:33.061Z,3.33
2023-02-19T12:32:03.718Z,4.10
2023-02-19T12:34:44.988Z,1.83
2023-02-19T12:37:52.776Z,2.88
2023-02-19T12:40:49.178Z,3.13
2023-02-19T12:43:22.385Z,1.40
2023-02-19T12:46:14.648Z,2.85
2023-02-19T12:49:00.132Z,1.20
2023-02-19T12:51:40.140Z,1.33
2023-02-19T12:54:25.008Z,1.83
2023-02-19T12:56:57.988Z,2.75
2023-02-19T12:59:27.298Z,2.67
2023-02-19T13:02:11.509Z,1.85
2023-02-19T13:05:05.709Z,2.88
2023-02-19T13:07:38.100Z,1.70
2023-02-19T13:10:33.910Z,3.25
2023-02-19T13:13:06.970Z,2.80
2023-02-19T13:15:41.681Z,2.58
2023-02-19T13:18:18.711Z,2.72
2023-02-19T13:20:47.846Z,2.43
2023-02-19T13:23:42.259Z,3.63
2023-02-19T13:26:11.853Z,3.47
2023-02-19T13:28:59.626Z,3.67
2023-02-19T13:32:03.309Z,4.05
2023-02-19T13:34:36.049Z,1.93
2023-02-19T13:37:03.259Z,1.60
2023-02-19T13:39:31.302Z,2.28
2023-02-19T13:41:59.349Z,4.10
2023-02-19T13:44:32.176Z,4.30
2023-02-19T13:46:59.590Z,3.57
2023-02-19T13:49:39.335Z,2.08
2023-02-19T13:52:30.554Z,3.00
2023-02-19T13:55:34.654Z,2.88
2023-02-19T13:58:39.681Z,2.25
2023-02-19T14:01:09.842Z,1.03
2023-02-19T14:03:54.300Z,2.95
2023-02-19T14:06:21.350Z,1.70
2023-02-19T14:08:57.703Z,2.40
2023-02-19T14:11:42.462Z,3.22
2023-02-19T14:14:26.403Z,1.97
2023-02-19T14:16:57.984Z,2.33
2023-02-19T14:19:42.792Z,2.15
2023-02-19T14:22:47.206Z,2.25
2023-02-19T14:25:31.802Z,2.45
2023-02-19T14:28:10.468Z,2.80
2023-02-19T14:30:57.791Z,2.20
2023-02-19T14:33:29.279Z,1.00
2023-02-19T14:36:21.606Z,0.80
2023-02-19T14:38:53.481Z,1.48
2023-02-19T14:41:23.063Z,1.00
2023-02-19T14:43:51.734Z,1.35
2023-02-19T14:46:23.981Z,1.33
2023-02-19T14:48:50.882Z,0.85
2023-02-19T14:51:27.662Z,0.45
2023-02-19T14:53:56.408Z,1.10
2023-02-19T14:56:26.426Z,0.70
2023-02-19T14:59:08.254Z,0.60
2023-02-19T15:01:34.729Z,0.60
2023-02-19T15:04:01.261Z,1.13
2023-02-19T15:06:28.745Z,0.40
2023-02-19T15:08:59.193Z,0.75
2023-02-19T15:11:28.710Z,0.63
2023-02-19T15:14:00.841Z,0.90
2023-02-19T15:16:29.120Z,0.73
2023-02-19T15:18:57.853Z,0.97
2023-02-19T15:21:39.995Z,2.42
2023-02-19T15:24:07.171Z,2.22
2023-02-19T15:26:40.441Z,7.95
2023-02-19T15:29:12.308Z,4.00
2023-02-19T15:31:51.010Z,2.50
2023-02-19T15:34:37.760Z,5.63
2023-02-19T15:37:07.722Z,2.83
2023-02-19T15:39:40.044Z,3.47
2023-02-19T15:42:11.136Z,2.38
2023-02-19T15:44:49.396Z,1.87
2023-02-19T15:47:22.717Z,1.67
2023-02-19T15:50:11.493Z,2.70
2023-02-19T15:53:01.159Z,1.63
2023-02-19T15:55:39.070Z,3.45
2023-02-19T15:58:20.596Z,6.67
2023-02-19T16:00:59.264Z,2.92
2023-02-19T16:03:28.153Z,2.38
2023-02-19T16:06:02.432Z,4.65
2023-02-19T16:08:39.746Z,1.40
2023-02-19T16:11:24.644Z,2.10
2023-02-19T16:13:51.968Z,2.20
2023-02-19T16:16:35.321Z,0.85
2023-02-19T16:19:02.110Z,3.05
2023-02-19T16:21:28.982Z,2.42
2023-02-19T16:24:13.374Z,2.13
2023-02-19T16:26:41.055Z,1.58
2023-02-19T16:29:19.692Z,1.60
2023-02-19T16:31:56.391Z,1.25
2023-02-19T16:34:47.025Z,2.55
2023-02-19T16:37:59.103Z,1.63
2023-02-19T16:41:00.715Z,1.75
2023-02-19T16:43:38.153Z,4.25
2023-02-19T16:46:07.013Z,3.90
2023-02-19T16:48:33.842Z,2.05
2023-02-19T16:51:00.401Z,3.83
2023-02-19T16:53:26.988Z,2.90
2023-02-19T16:55:53.500Z,2.72
2023-02-19T16:58:20.462Z,3.92
2023-02-19T17:00:47.403Z,2.53
2023-02-19T17:03:18.229Z,3.03
2023-02-19T17:05:45.230Z,3.00
2023-02-19T17:08:33.769Z,10.55
2023-02-19T17:11:06.453Z,12.32
2023-02-19T17:13:33.022Z,6.78
2023-02-19T17:15:59.692Z,4.53
2023-02-19T17:18:26.259Z,5.75
2023-02-19T17:21:20.620Z,4.03
2023-02-19T17:23:47.226Z,3.53
2023-02-19T17:26:18.965Z,5.35
2023-02-19T17:28:45.541Z,3.53
2023-02-19T17:31:13.633Z,3.55
2023-02-19T17:33:41.017Z,5.35
2023-02-19T17:36:08.203Z,4.60
2023-02-19T17:38:35.100Z,2.10
2023-02-19T17:41:01.523Z,5.07
2023-02-19T17:43:27.925Z,2.92
2023-02-19T17:45:54.447Z,2.35
2023-02-19T17:48:20.920Z,5.38
2023-02-19T17:50:49.250Z,3.40
2023-02-19T17:53:15.790Z,2.83
2023-02-19T17:55:42.248Z,4.20
2023-02-19T17:58:08.715Z,2.15
2023-02-19T18:00:36.579Z,5.63
2023-02-19T18:03:03.922Z,2.25
2023-02-19T18:05:31.382Z,2.23
2023-02-19T18:07:57.877Z,4.82
2023-02-19T18:10:25.239Z,3.10
2023-02-19T18:12:51.767Z,3.78
2023-02-19T18:15:21.727Z,4.15
2023-02-19T18:17:48.264Z,3.10
2023-02-19T18:20:16.767Z,37.20
2023-02-19T18:22:43.261Z,18.98
2023-02-19T18:25:10.985Z,5.68
2023-02-19T18:27:37.816Z,5.60
2023-02-19T18:30:05.657Z,3.43
2023-02-19T18:32:32.146Z,2.60
2023-02-19T18:35:00.164Z,1.85
2023-02-19T18:37:30.033Z,2.53
2023-02-19T18:39:57.763Z,2.38
2023-02-19T18:42:24.325Z,2.47
2023-02-19T18:44:52.699Z,2.70
2023-02-19T18:47:21.538Z,4.93
2023-02-19T18:49:51.866Z,5.50
2023-02-19T18:52:21.168Z,3.90
2023-02-19T18:54:52.465Z,2.43
2023-02-19T18:57:21.442Z,4.68
2023-02-19T18:59:48.754Z,1.75
2023-02-19T19:02:16.844Z,3.40
2023-02-19T19:04:43.440Z,2.85
2023-02-19T19:07:10.260Z,2.20
2023-02-19T19:09:37.154Z,5.40
2023-02-19T19:12:03.925Z,13.18
2023-02-19T19:14:30.378Z,8.80
2023-02-19T19:16:56.892Z,11.45
2023-02-19T19:19:23.593Z,10.77
2023-02-19T19:21:53.453Z,14.05
2023-02-19T19:24:21.453Z,18.85
2023-02-19T19:26:48.920Z,6.10
2023-02-19T19:29:17.202Z,5.57
2023-02-19T19:31:44.586Z,5.07
2023-02-19T19:34:12.854Z,5.00
2023-02-19T19:36:39.303Z,5.90
2023-02-19T19:39:07.890Z,3.13
2023-02-19T19:41:34.350Z,2.42
2023-02-19T19:44:08.722Z,2.77
2023-02-19T19:46:35.250Z,3.17
2023-02-19T19:49:01.805Z,3.88
2023-02-19T19:51:32.815Z,3.95
2023-02-19T19:53:59.669Z,3.38
2023-02-19T19:56:26.130Z,2.93
2023-02-19T19:58:52.517Z,2.55
2023-02-19T20:01:21.270Z,4.53
2023-02-19T20:03:48.026Z,2.75
2023-02-19T20:06:14.541Z,4.35
2023-02-19T20:08:41.261Z,2.40
2023-02-19T20:11:07.649Z,3.45
2023-02-19T20:13:34.529Z,3.35
2023-02-19T20:16:01.019Z,4.18
2023-02-19T20:18:27.537Z,2.85
2023-02-19T20:20:54.021Z,3.20
2023-02-19T20:23:20.480Z,4.43
2023-02-19T20:25:46.927Z,6.90
2023-02-19T20:28:13.391Z,3.53
2023-02-19T20:30:39.902Z,3.97
2023-02-19T20:33:06.379Z,5.63
2023-02-19T20:35:33.718Z,9.27
2023-02-19T20:38:00.255Z,5.03
2023-02-19T20:40:30.401Z,3.75
2023-02-19T20:42:57.387Z,2.38
2023-02-19T20:45:23.894Z,3.73
2023-02-19T20:47:50.293Z,3.55
2023-02-19T20:50:18.736Z,3.53
2023-02-19T20:52:46.065Z,5.35
2023-02-19T20:55:12.966Z,7.00
2023-02-19T20:57:39.388Z,5.60
2023-02-19T21:00:07.107Z,7.55
2023-02-19T21:02:33.910Z,4.93
2023-02-19T21:05:00.889Z,5.15
2023-02-19T21:07:27.371Z,5.78
2023-02-19T21:09:54.524Z,9.43
2023-02-19T21:12:22.491Z,6.65
2023-02-19T21:14:49.364Z,7.78
2023-02-19T21:17:15.955Z,7.45
2023-02-19T21:19:42.522Z,7.00
2023-02-19T21:22:09.007Z,7.97
2023-02-19T21:24:35.545Z,6.30
2023-02-19T21:27:02.051Z,7.45
2023-02-19T21:29:28.486Z,8.55
2023-02-19T21:31:56.884Z,8.48
2023-02-19T21:34:26.864Z,6.50
2023-02-19T21:36:54.378Z,7.05
2023-02-19T21:39:22.653Z,5.78
2023-02-19T21:41:49.821Z,5.97
2023-02-19T21:44:16.816Z,10.15
2023-02-19T21:46:43.201Z,4.60
2023-02-19T21:49:10.434Z,10.65
2023-02-19T21:51:39.942Z,4.10
2023-02-19T21:54:07.930Z,5.20
2023-02-19T21:56:36.483Z,5.38
2023-02-19T21:59:03.710Z,5.40
2023-02-19T22:01:33.320Z,6.72
2023-02-19T22:04:00.633Z,6.28
2023-02-19T22:06:29.650Z,6.10
2023-02-19T22:08:56.490Z,8.77
2023-02-19T22:11:23.252Z,5.90
2023-02-19T22:13:49.989Z,6.50
2023-02-19T22:16:17.660Z,5.57
2023-02-19T22:18:52.453Z,6.10
2023-02-19T22:21:20.310Z,8.18
2023-02-19T22:23:47.697Z,10.03
2023-02-19T22:26:37.244Z,7.28
2023-02-19T22:29:07.136Z,7.38
2023-02-19T22:31:34.752Z,6.88
2023-02-19T22:34:01.375Z,13.43
2023-02-19T22:36:31.009Z,7.17
2023-02-19T22:38:57.547Z,9.40
2023-02-19T22:41:23.994Z,7.40
2023-02-19T22:43:53.597Z,9.68
2023-02-19T22:46:22.932Z,10.32
2023-02-19T22:48:50.519Z,9.07
2023-02-19T22:51:19.612Z,5.75
2023-02-19T22:53:47.602Z,7.07
2023-02-19T22:56:15.489Z,9.25
2023-02-19T22:58:42.421Z,10.38
2023-02-19T23:01:10.484Z,10.00
2023-02-19T23:03:57.172Z,9.32
2023-02-19T23:06:34.645Z,9.18
2023-02-19T23:09:09.821Z,9.02
2023-02-19T23:11:39.439Z,8.68
2023-02-19T23:14:07.424Z,9.23
2023-02-19T23:16:35.947Z,8.32
2023-02-19T23:19:05.019Z,14.43
2023-02-19T23:21:32.098Z,9.20
2023-02-19T23:23:59.286Z,9.15
2023-02-19T23:26:25.817Z,9.73
2023-02-19T23:28:52.348Z,10.98
2023-02-19T23:31:19.022Z,11.57
2023-02-19T23:33:45.652Z,10.10
2023-02-19T23:36:13.695Z,10.02
2023-02-19T23:38:40.392Z,11.33
2023-02-19T23:41:11.627Z,9.65
2023-02-19T23:43:38.792Z,12.13
2023-02-19T23:46:05.736Z,11.90
2023-02-19T23:48:32.613Z,10.40
2023-02-19T23:50:59.327Z,11.30
2023-02-19T23:53:25.879Z,9.20
2023-02-19T23:55:52.318Z,15.48
2023-02-19T23:58:19.145Z,11.77
